createdAt,value
2022-10-08T00:01:19.130Z,11.60
2022-10-08T00:03:49.055Z,12.33
2022-10-08T00:06:23.504Z,10.00
2022-10-08T00:08:55.014Z,9.13
2022-10-08T00:11:30.273Z,11.23
2022-10-08T00:14:04.665Z,8.57
2022-10-08T00:16:37.968Z,10.03
2022-10-08T00:19:08.071Z,8.97
2022-10-08T00:21:40.637Z,12.20
2022-10-08T00:24:13.962Z,11.23
2022-10-08T00:26:43.897Z,12.83
2022-10-08T00:29:13.676Z,10.70
2022-10-08T00:31:43.958Z,9.47
2022-10-08T00:34:13.109Z,9.63
2022-10-08T00:36:41.160Z,10.33
2022-10-08T00:39:19.495Z,10.60
2022-10-08T00:41:49.297Z,7.73
2022-10-08T00:44:46.894Z,6.97
2022-10-08T00:47:23.742Z,7.13
2022-10-08T00:49:53.512Z,6.20
2022-10-08T00:52:21.684Z,9.43
2022-10-08T00:54:50.205Z,8.73
2022-10-08T00:57:18.447Z,8.60
2022-10-08T00:59:46.224Z,6.93
2022-10-08T01:02:13.640Z,5.97
2022-10-08T01:04:43.615Z,5.87
2022-10-08T01:07:19.001Z,7.63
2022-10-08T01:10:15.946Z,5.77
2022-10-08T01:13:08.857Z,4.73
2022-10-08T01:15:45.311Z,5.37
2022-10-08T01:18:11.940Z,5.13
2022-10-08T01:20:41.657Z,4.57
2022-10-08T01:23:36.464Z,5.73
2022-10-08T01:26:22.795Z,7.67
2022-10-08T01:29:31.866Z,7.27
2022-10-08T01:32:03.525Z,6.70
2022-10-08T01:34:39.054Z,10.47
2022-10-08T01:37:14.128Z,12.20
2022-10-08T01:39:42.103Z,11.23
2022-10-08T01:42:10.971Z,12.47
2022-10-08T01:44:47.253Z,13.27
2022-10-08T01:47:19.274Z,12.60
2022-10-08T01:49:55.797Z,12.03
2022-10-08T01:52:28.916Z,10.47
2022-10-08T01:55:01.140Z,13.40
2022-10-08T01:57:30.813Z,18.50
2022-10-08T02:00:03.137Z,12.43
2022-10-08T02:02:41.141Z,13.90
2022-10-08T02:05:08.806Z,12.13
2022-10-08T02:07:43.251Z,9.67
2022-10-08T02:10:14.034Z,8.47
2022-10-08T02:12:44.024Z,7.07
2022-10-08T02:15:16.040Z,8.47
2022-10-08T02:18:18.213Z,7.17
2022-10-08T02:21:03.514Z,8.40
2022-10-08T02:23:37.313Z,10.30
2022-10-08T02:26:31.681Z,8.30
2022-10-08T02:29:04.047Z,13.83
2022-10-08T02:31:56.122Z,11.73
2022-10-08T02:34:25.934Z,10.73
2022-10-08T02:37:06.113Z,12.27
2022-10-08T02:39:36.955Z,13.77
2022-10-08T02:42:08.206Z,15.60
2022-10-08T02:44:52.606Z,14.67
2022-10-08T02:47:23.409Z,13.17
2022-10-08T02:49:58.850Z,16.17
2022-10-08T02:52:28.436Z,13.50
2022-10-08T02:54:58.765Z,14.77
2022-10-08T02:57:34.248Z,15.73
2022-10-08T03:00:01.025Z,11.43
2022-10-08T03:02:43.040Z,14.27
2022-10-08T03:05:17.272Z,10.43
2022-10-08T03:07:45.058Z,11.17
2022-10-08T03:10:12.660Z,8.77
2022-10-08T03:12:40.677Z,16.00
2022-10-08T03:15:11.663Z,12.33
2022-10-08T03:17:46.043Z,14.20
2022-10-08T03:20:13.610Z,12.33
2022-10-08T03:22:40.796Z,10.30
2022-10-08T03:25:08.035Z,9.17
2022-10-08T03:27:37.744Z,10.20
2022-10-08T03:30:05.245Z,9.93
2022-10-08T03:32:31.931Z,11.63
2022-10-08T03:34:58.783Z,8.17
2022-10-08T03:37:26.463Z,7.57
2022-10-08T03:39:53.221Z,6.73
2022-10-08T03:42:20.015Z,7.53
2022-10-08T03:44:46.785Z,7.50
2022-10-08T03:47:13.677Z,9.23
2022-10-08T03:49:41.193Z,8.70
2022-10-08T03:52:08.145Z,14.23
2022-10-08T03:54:36.091Z,16.47
2022-10-08T03:57:03.548Z,13.57
2022-10-08T03:59:30.359Z,15.90
2022-10-08T04:01:57.207Z,12.53
2022-10-08T04:04:25.740Z,11.57
2022-10-08T04:06:52.757Z,12.80
2022-10-08T04:09:19.473Z,19.30
2022-10-08T04:11:48.167Z,16.50
2022-10-08T04:14:14.860Z,12.10
2022-10-08T04:16:41.567Z,15.07
2022-10-08T04:19:11.923Z,14.07
2022-10-08T04:21:38.719Z,12.80
2022-10-08T04:24:05.637Z,12.97
2022-10-08T04:26:32.394Z,12.63
2022-10-08T04:29:00.011Z,9.10
2022-10-08T04:31:26.843Z,9.97
2022-10-08T04:33:53.610Z,12.80
2022-10-08T04:36:25.231Z,17.40
2022-10-08T04:38:52.071Z,15.10
2022-10-08T04:41:22.343Z,14.03
2022-10-08T04:43:49.408Z,15.50
2022-10-08T04:46:19.638Z,12.63
2022-10-08T04:48:52.470Z,14.90
2022-10-08T04:51:25.995Z,15.00
2022-10-08T04:53:53.747Z,14.47
2022-10-08T04:56:24.571Z,13.80
2022-10-08T04:58:55.032Z,13.10
2022-10-08T05:01:22.790Z,12.30
2022-10-08T05:03:52.395Z,13.53
2022-10-08T05:06:24.605Z,15.23
2022-10-08T05:08:56.208Z,14.20
2022-10-08T05:11:27.132Z,12.50
2022-10-08T05:13:55.189Z,11.07
2022-10-08T05:16:24.382Z,14.00
2022-10-08T05:18:54.285Z,10.90
2022-10-08T05:21:23.915Z,10.73
2022-10-08T05:24:02.151Z,8.67
2022-10-08T05:26:56.930Z,8.37
2022-10-08T05:29:23.519Z,7.80
2022-10-08T05:31:50.296Z,13.73
2022-10-08T05:34:17.151Z,8.63
2022-10-08T05:36:44.012Z,7.07
2022-10-08T05:39:11.947Z,13.47
2022-10-08T05:41:38.950Z,11.33
2022-10-08T05:44:08.464Z,12.43
2022-10-08T05:46:37.052Z,17.77
2022-10-08T05:49:06.237Z,14.07
2022-10-08T05:51:34.589Z,15.63
2022-10-08T05:54:01.447Z,19.47
2022-10-08T05:56:28.890Z,13.87
2022-10-08T05:58:55.976Z,15.10
2022-10-08T06:01:28.506Z,14.40
2022-10-08T06:04:06.959Z,15.73
2022-10-08T06:06:36.526Z,13.83
2022-10-08T06:09:03.943Z,13.47
2022-10-08T06:11:34.665Z,16.90
2022-10-08T06:14:02.396Z,18.90
2022-10-08T06:16:30.198Z,21.07
2022-10-08T06:18:57.078Z,29.33
2022-10-08T06:21:26.821Z,20.03
2022-10-08T06:23:56.392Z,20.23
2022-10-08T06:26:27.352Z,18.27
2022-10-08T06:28:58.569Z,18.67
2022-10-08T06:31:26.358Z,20.63
2022-10-08T06:33:59.020Z,27.27
2022-10-08T06:36:28.208Z,15.40
2022-10-08T06:39:05.015Z,14.40
2022-10-08T06:41:34.832Z,15.60
2022-10-08T06:44:04.426Z,17.57
2022-10-08T06:46:32.766Z,17.50
2022-10-08T06:49:01.644Z,13.67
2022-10-08T06:51:29.275Z,15.20
2022-10-08T06:54:01.438Z,14.90
2022-10-08T06:56:33.649Z,15.50
2022-10-08T06:59:00.541Z,15.70
2022-10-08T07:01:32.929Z,14.27
2022-10-08T07:04:01.274Z,17.87
2022-10-08T07:06:29.159Z,16.10
2022-10-08T07:08:59.914Z,13.30
2022-10-08T07:11:27.494Z,15.47
2022-10-08T07:13:55.615Z,14.07
2022-10-08T07:16:24.241Z,15.83
2022-10-08T07:18:52.821Z,14.00
2022-10-08T07:21:21.580Z,13.63
2022-10-08T07:23:48.790Z,13.60
2022-10-08T07:26:21.348Z,14.47
2022-10-08T07:28:55.067Z,15.07
2022-10-08T07:31:28.302Z,12.30
2022-10-08T07:33:56.590Z,14.43
2022-10-08T07:36:25.926Z,13.57
2022-10-08T07:39:02.276Z,13.67
2022-10-08T07:41:31.738Z,18.47
2022-10-08T07:44:01.162Z,17.73
2022-10-08T07:46:29.528Z,14.50
2022-10-08T07:48:59.001Z,10.33
2022-10-08T07:51:29.972Z,13.87
2022-10-08T07:54:02.099Z,11.47
2022-10-08T07:56:29.717Z,15.00
2022-10-08T07:58:57.149Z,13.43
2022-10-08T08:01:29.857Z,13.87
2022-10-08T08:04:05.318Z,10.70
2022-10-08T08:06:37.764Z,14.67
2022-10-08T08:09:04.649Z,13.33
2022-10-08T08:11:31.547Z,15.20
2022-10-08T08:13:58.378Z,13.37
2022-10-08T08:16:28.091Z,10.03
2022-10-08T08:18:59.579Z,14.03
2022-10-08T08:21:34.395Z,7.23
2022-10-08T08:24:06.969Z,7.20
2022-10-08T08:26:37.361Z,11.13
2022-10-08T08:29:13.538Z,14.77
2022-10-08T08:31:43.506Z,7.57
2022-10-08T08:34:17.034Z,9.50
2022-10-08T08:36:46.709Z,9.20
2022-10-08T08:39:17.246Z,6.97
2022-10-08T08:41:54.282Z,5.37
2022-10-08T08:44:33.979Z,9.77
2022-10-08T08:47:08.203Z,14.13
2022-10-08T08:49:42.474Z,8.13
2022-10-08T08:52:12.368Z,9.57
2022-10-08T08:54:41.800Z,10.27
2022-10-08T08:57:34.030Z,8.07
2022-10-08T09:00:23.983Z,10.13
2022-10-08T09:03:03.698Z,10.17
2022-10-08T09:05:33.787Z,10.27
2022-10-08T09:08:13.097Z,6.73
2022-10-08T09:10:46.559Z,10.57
2022-10-08T09:13:18.791Z,6.07
2022-10-08T09:15:46.941Z,10.13
2022-10-08T09:18:16.487Z,7.43
2022-10-08T09:20:44.303Z,7.77
2022-10-08T09:23:20.205Z,4.30
2022-10-08T09:26:22.623Z,10.10
2022-10-08T09:28:53.290Z,5.50
2022-10-08T09:31:25.625Z,6.30
2022-10-08T09:34:09.986Z,9.23
2022-10-08T09:36:44.567Z,7.33
2022-10-08T09:39:23.992Z,7.67
2022-10-08T09:42:19.101Z,5.57
2022-10-08T09:44:48.207Z,4.20
2022-10-08T09:47:18.120Z,5.33
2022-10-08T09:49:51.483Z,7.20
2022-10-08T09:52:21.955Z,3.33
2022-10-08T09:54:53.922Z,5.10
2022-10-08T09:57:22.104Z,7.13
2022-10-08T09:59:59.709Z,5.10
2022-10-08T10:02:36.167Z,7.33
2022-10-08T10:05:17.988Z,6.20
2022-10-08T10:07:45.530Z,4.47
2022-10-08T10:10:34.374Z,6.13
2022-10-08T10:13:12.065Z,5.40
2022-10-08T10:16:23.311Z,3.43
2022-10-08T10:18:55.531Z,4.83
2022-10-08T10:21:49.005Z,5.40
2022-10-08T10:24:45.984Z,6.83
2022-10-08T10:27:43.009Z,7.63
2022-10-08T10:30:36.027Z,5.40
2022-10-08T10:33:09.266Z,3.77
2022-10-08T10:35:40.747Z,6.73
2022-10-08T10:38:16.034Z,9.10
2022-10-08T10:40:47.373Z,4.83
2022-10-08T10:43:49.834Z,6.20
2022-10-08T10:46:33.658Z,3.30
2022-10-08T10:49:00.563Z,5.27
2022-10-08T10:51:50.598Z,7.25
2022-10-08T10:54:55.645Z,4.20
2022-10-08T10:57:57.734Z,6.13
2022-10-08T11:00:30.254Z,6.05
2022-10-08T11:03:06.573Z,8.30
2022-10-08T11:05:35.408Z,3.83
2022-10-08T11:08:08.250Z,6.30
2022-10-08T11:10:41.205Z,5.97
2022-10-08T11:13:17.907Z,5.28
2022-10-08T11:16:01.397Z,3.10
2022-10-08T11:18:43.148Z,4.43
2022-10-08T11:21:34.299Z,4.27
2022-10-08T11:24:19.793Z,6.00
2022-10-08T11:27:12.699Z,4.17
2022-10-08T11:29:48.934Z,4.73
2022-10-08T11:32:17.602Z,4.73
2022-10-08T11:34:54.554Z,4.57
2022-10-08T11:37:37.040Z,4.28
2022-10-08T11:40:22.292Z,4.77
2022-10-08T11:43:21.476Z,3.97
2022-10-08T11:46:00.999Z,7.65
2022-10-08T11:48:36.235Z,7.93
2022-10-08T11:51:21.439Z,7.20
2022-10-08T11:54:08.396Z,2.92
2022-10-08T11:56:38.539Z,8.52
2022-10-08T11:59:39.911Z,6.50
2022-10-08T12:02:25.479Z,10.00
2022-10-08T12:04:54.519Z,5.60
2022-10-08T12:07:37.462Z,6.72
2022-10-08T12:10:29.859Z,4.72
2022-10-08T12:13:01.736Z,7.25
2022-10-08T12:15:28.899Z,5.93
2022-10-08T12:18:01.317Z,3.05
2022-10-08T12:20:33.896Z,3.63
2022-10-08T12:23:01.967Z,4.10
2022-10-08T12:25:37.810Z,5.38
2022-10-08T12:28:19.756Z,4.20
2022-10-08T12:30:58.961Z,5.72
2022-10-08T12:33:27.949Z,7.03
2022-10-08T12:36:23.326Z,4.95
2022-10-08T12:38:56.210Z,5.25
2022-10-08T12:41:29.611Z,5.88
2022-10-08T12:44:33.224Z,6.68
2022-10-08T12:47:24.593Z,5.13
2022-10-08T12:50:17.769Z,2.95
2022-10-08T12:52:44.989Z,4.68
2022-10-08T12:55:23.230Z,8.93
2022-10-08T12:58:30.335Z,5.22
2022-10-08T13:01:03.076Z,3.75
2022-10-08T13:03:29.996Z,3.70
2022-10-08T13:05:57.658Z,4.97
2022-10-08T13:08:42.616Z,2.90
2022-10-08T13:11:15.185Z,5.18
2022-10-08T13:13:45.032Z,7.68
2022-10-08T13:16:24.205Z,4.72
2022-10-08T13:18:59.410Z,5.73
2022-10-08T13:21:32.123Z,9.45
2022-10-08T13:24:01.228Z,10.93
2022-10-08T13:26:40.186Z,3.42
2022-10-08T13:29:35.445Z,5.45
2022-10-08T13:32:15.652Z,3.20
2022-10-08T13:34:45.853Z,6.22
2022-10-08T13:37:22.807Z,2.67
2022-10-08T13:40:20.424Z,5.95
2022-10-08T13:42:50.928Z,5.68
2022-10-08T13:45:19.670Z,5.50
2022-10-08T13:47:46.906Z,3.35
2022-10-08T13:50:16.477Z,3.55
2022-10-08T13:52:46.354Z,4.65
2022-10-08T13:55:28.289Z,4.22
2022-10-08T13:57:56.582Z,2.22
2022-10-08T14:00:23.745Z,2.03
2022-10-08T14:02:53.702Z,4.20
2022-10-08T14:05:21.865Z,3.35
2022-10-08T14:07:55.028Z,3.28
2022-10-08T14:10:22.029Z,4.13
2022-10-08T14:12:48.740Z,3.97
2022-10-08T14:15:17.135Z,2.40
2022-10-08T14:17:44.670Z,3.17
2022-10-08T14:20:12.432Z,2.90
2022-10-08T14:22:39.185Z,3.22
2022-10-08T14:25:18.979Z,5.47
2022-10-08T14:27:46.394Z,2.97
2022-10-08T14:30:14.913Z,4.97
2022-10-08T14:32:42.421Z,5.05
2022-10-08T14:35:11.172Z,3.45
2022-10-08T14:37:38.781Z,6.30
2022-10-08T14:40:08.669Z,2.33
2022-10-08T14:42:36.421Z,2.23
2022-10-08T14:45:03.698Z,3.63
2022-10-08T14:47:30.444Z,2.00
2022-10-08T14:49:58.258Z,5.43
2022-10-08T14:52:25.046Z,3.10
2022-10-08T14:54:51.722Z,3.03
2022-10-08T14:57:18.412Z,1.50
2022-10-08T14:59:45.244Z,5.00
2022-10-08T15:02:13.062Z,4.27
2022-10-08T15:04:39.837Z,3.27
2022-10-08T15:07:06.771Z,1.90
2022-10-08T15:09:34.579Z,3.63
2022-10-08T15:12:01.356Z,2.97
2022-10-08T15:14:29.020Z,1.80
2022-10-08T15:16:55.816Z,1.87
2022-10-08T15:19:24.214Z,3.53
2022-10-08T15:21:51.258Z,2.10
2022-10-08T15:24:18.272Z,2.03
2022-10-08T15:26:45.330Z,4.07
2022-10-08T15:29:12.137Z,3.03
2022-10-08T15:31:39.054Z,1.57
2022-10-08T15:34:05.832Z,3.70
2022-10-08T15:36:36.834Z,1.70
2022-10-08T15:39:13.074Z,3.10
2022-10-08T15:41:42.182Z,2.80
2022-10-08T15:44:13.303Z,3.63
2022-10-08T15:46:40.082Z,1.10
2022-10-08T15:49:08.057Z,0.67
2022-10-08T15:51:34.814Z,4.93
2022-10-08T15:54:02.357Z,3.20
2022-10-08T15:56:29.712Z,5.70
2022-10-08T15:58:58.680Z,3.23
2022-10-08T16:01:26.327Z,2.27
2022-10-08T16:03:56.012Z,3.53
2022-10-08T16:06:26.684Z,2.57
2022-10-08T16:08:56.129Z,1.43
2022-10-08T16:11:30.936Z,4.13
2022-10-08T16:14:07.810Z,1.40
2022-10-08T16:16:35.832Z,1.43
2022-10-08T16:19:06.697Z,1.53
2022-10-08T16:21:35.150Z,1.53
2022-10-08T16:24:03.217Z,1.83
2022-10-08T16:26:32.183Z,2.87
2022-10-08T16:29:01.673Z,1.80
2022-10-08T16:31:30.118Z,1.83
2022-10-08T16:33:58.578Z,1.90
2022-10-08T16:36:26.946Z,3.83
2022-10-08T16:38:53.686Z,1.63
2022-10-08T16:41:22.697Z,3.37
2022-10-08T16:43:51.148Z,2.97
2022-10-08T16:46:34.925Z,2.83
2022-10-08T16:49:11.590Z,2.40
2022-10-08T16:51:40.230Z,2.60
2022-10-08T16:54:09.009Z,2.10
2022-10-08T16:56:37.645Z,3.80
2022-10-08T16:59:10.078Z,3.77
2022-10-08T17:01:41.171Z,2.07
2022-10-08T17:04:09.157Z,2.57
2022-10-08T17:06:37.645Z,1.20
2022-10-08T17:09:04.706Z,2.13
2022-10-08T17:11:33.087Z,2.87
2022-10-08T17:14:00.497Z,1.47
2022-10-08T17:16:29.058Z,2.80
2022-10-08T17:18:57.921Z,2.40
2022-10-08T17:21:25.060Z,1.10
2022-10-08T17:23:52.023Z,1.97
2022-10-08T17:26:21.812Z,1.93
2022-10-08T17:28:50.528Z,1.90
2022-10-08T17:31:24.062Z,1.40
2022-10-08T17:33:51.149Z,1.63
2022-10-08T17:36:20.992Z,5.93
2022-10-08T17:38:51.153Z,2.73
2022-10-08T17:41:21.388Z,3.40
2022-10-08T17:43:50.240Z,2.87
2022-10-08T17:46:20.157Z,4.77
2022-10-08T17:48:48.041Z,5.63
2022-10-08T17:51:17.398Z,5.13
2022-10-08T17:53:44.966Z,6.37
2022-10-08T17:56:13.570Z,5.60
2022-10-08T17:58:40.786Z,5.90
2022-10-08T18:01:14.772Z,2.83
2022-10-08T18:03:43.607Z,3.60
2022-10-08T18:06:12.096Z,5.27
2022-10-08T18:08:38.913Z,3.40
2022-10-08T18:11:08.958Z,3.70
2022-10-08T18:13:36.051Z,2.17
2022-10-08T18:16:05.127Z,2.30
2022-10-08T18:18:32.148Z,2.67
2022-10-08T18:21:00.491Z,1.37
2022-10-08T18:23:34.887Z,1.67
2022-10-08T18:26:19.405Z,1.33
2022-10-08T18:28:48.382Z,0.93
2022-10-08T18:31:15.794Z,1.27
2022-10-08T18:33:45.672Z,1.57
2022-10-08T18:36:15.403Z,2.60
2022-10-08T18:38:43.894Z,1.83
2022-10-08T18:41:20.805Z,1.63
2022-10-08T18:43:49.286Z,1.50
2022-10-08T18:46:20.010Z,1.30
2022-10-08T18:48:47.624Z,1.37
2022-10-08T18:51:17.765Z,1.73
2022-10-08T18:53:46.244Z,1.73
2022-10-08T18:56:15.743Z,1.27
2022-10-08T18:58:42.722Z,1.27
2022-10-08T19:01:24.333Z,2.43
2022-10-08T19:03:54.513Z,1.60
2022-10-08T19:06:24.273Z,3.70
2022-10-08T19:08:51.630Z,1.67
2022-10-08T19:11:21.027Z,4.63
2022-10-08T19:13:48.584Z,0.80
2022-10-08T19:16:15.983Z,1.60
2022-10-08T19:18:44.894Z,1.00
2022-10-08T19:21:13.236Z,1.50
2022-10-08T19:23:41.484Z,1.77
2022-10-08T19:26:08.995Z,1.67
2022-10-08T19:28:37.568Z,2.10
2022-10-08T19:31:20.315Z,1.50
2022-10-08T19:33:51.881Z,1.80
2022-10-08T19:36:20.058Z,1.37
2022-10-08T19:39:02.121Z,1.00
2022-10-08T19:41:29.268Z,1.70
2022-10-08T19:43:57.009Z,1.77
2022-10-08T19:46:25.091Z,2.77
2022-10-08T19:48:54.445Z,2.33
2022-10-08T19:51:21.695Z,4.10
2022-10-08T19:53:49.240Z,5.17
2022-10-08T19:56:16.857Z,5.80
2022-10-08T19:58:48.504Z,6.60
2022-10-08T20:01:25.674Z,9.27
2022-10-08T20:03:55.776Z,6.13
2022-10-08T20:06:25.170Z,6.40
2022-10-08T20:08:58.555Z,6.00
2022-10-08T20:11:26.589Z,4.83
2022-10-08T20:13:53.886Z,4.73
2022-10-08T20:16:23.592Z,3.50
2022-10-08T20:18:59.344Z,4.17
2022-10-08T20:21:27.829Z,3.03
2022-10-08T20:23:54.982Z,5.07
2022-10-08T20:26:27.069Z,6.93
2022-10-08T20:29:02.348Z,4.87
2022-10-08T20:31:31.724Z,5.17
2022-10-08T20:34:01.212Z,4.87
2022-10-08T20:36:28.418Z,6.97
2022-10-08T20:38:56.965Z,4.47
2022-10-08T20:41:28.194Z,9.10
2022-10-08T20:44:00.710Z,6.60
2022-10-08T20:46:27.613Z,7.77
2022-10-08T20:48:54.747Z,11.13
2022-10-08T20:51:25.812Z,8.47
2022-10-08T20:53:59.205Z,6.23
2022-10-08T20:56:27.377Z,7.10
2022-10-08T20:58:54.255Z,6.60
2022-10-08T21:01:31.054Z,7.10
2022-10-08T21:04:00.381Z,5.40
2022-10-08T21:06:29.710Z,6.17
2022-10-08T21:08:57.921Z,4.63
2022-10-08T21:11:27.445Z,4.23
2022-10-08T21:13:55.570Z,5.83
2022-10-08T21:16:29.025Z,4.27
2022-10-08T21:18:58.377Z,3.30
2022-10-08T21:21:26.235Z,2.80
2022-10-08T21:23:53.600Z,3.13
2022-10-08T21:26:24.815Z,3.03
2022-10-08T21:28:54.807Z,2.90
2022-10-08T21:31:22.361Z,2.50
2022-10-08T21:33:50.995Z,2.67
2022-10-08T21:36:20.847Z,2.23
2022-10-08T21:38:47.593Z,5.23
2022-10-08T21:41:16.423Z,2.47
2022-10-08T21:43:45.767Z,3.20
2022-10-08T21:46:15.411Z,3.17
2022-10-08T21:48:42.945Z,4.83
2022-10-08T21:51:21.472Z,3.97
2022-10-08T21:53:51.126Z,5.17
2022-10-08T21:56:20.614Z,3.27
2022-10-08T21:58:49.572Z,2.70
2022-10-08T22:01:31.849Z,4.80
2022-10-08T22:04:01.343Z,3.97
2022-10-08T22:06:29.992Z,3.10
2022-10-08T22:08:57.275Z,4.63
2022-10-08T22:11:24.650Z,3.27
2022-10-08T22:13:51.817Z,3.00
2022-10-08T22:16:20.867Z,6.37
2022-10-08T22:18:48.196Z,3.73
2022-10-08T22:21:18.675Z,3.03
2022-10-08T22:23:46.645Z,4.27
2022-10-08T22:26:16.247Z,2.47
2022-10-08T22:28:43.737Z,2.97
2022-10-08T22:31:12.895Z,2.43
2022-10-08T22:33:39.686Z,2.87
2022-10-08T22:36:12.666Z,3.83
2022-10-08T22:38:41.546Z,2.47
2022-10-08T22:41:14.001Z,2.70
2022-10-08T22:43:41.870Z,3.40
2022-10-08T22:46:15.611Z,1.57
2022-10-08T22:48:42.591Z,2.67
2022-10-08T22:51:17.775Z,3.30
2022-10-08T22:53:45.627Z,3.70
2022-10-08T22:56:18.514Z,2.37
2022-10-08T22:58:46.113Z,3.93
2022-10-08T23:01:15.950Z,5.17
2022-10-08T23:03:43.006Z,2.60
2022-10-08T23:06:17.876Z,4.23
2022-10-08T23:08:46.385Z,3.73
2022-10-08T23:11:14.854Z,2.10
2022-10-08T23:13:45.501Z,2.20
2022-10-08T23:16:14.344Z,2.17
2022-10-08T23:18:43.454Z,3.33
2022-10-08T23:21:16.359Z,3.07
2022-10-08T23:23:46.230Z,3.10
2022-10-08T23:26:14.144Z,3.10
2022-10-08T23:28:41.331Z,2.20
2022-10-08T23:31:13.925Z,3.50
2022-10-08T23:33:43.175Z,1.93
2022-10-08T23:36:13.067Z,2.80
2022-10-08T23:38:40.244Z,1.50
2022-10-08T23:41:09.247Z,2.10
2022-10-08T23:43:43.470Z,3.37
2022-10-08T23:46:12.418Z,2.30
2022-10-08T23:48:39.916Z,4.20
2022-10-08T23:51:07.697Z,2.40
2022-10-08T23:53:36.278Z,3.07
2022-10-08T23:56:03.889Z,2.80
2022-10-08T23:58:30.807Z,2.70
